Time;durP1;ratioP1;P1;durP2;ratioP2;P2;SDS_P1;SDS_P2;PMS_P1;PMS_P2;Temp;Humidity;BMP_temperature;BMP_pressure;BME280_temperature;BME280_humidity;BME280_pressure;Samples;Min_cycle;Max_cycle;Signal;HPM_P1;HPM_P2
2023/02/08 00:02:02;;;;;;;21.37;12.03;;;2.60;88.40;;;;;;5054267;28;20445;-55
2023/02/08 00:04:28;;;;;;;18.40;11.47;;;2.60;88.40;;;;;;5053147;28;20470;-55
2023/02/08 00:06:56;;;;;;;14.93;10.70;;;2.60;88.50;;;;;;5054020;28;20800;-55
2023/02/08 00:09:23;;;;;;;16.33;11.50;;;2.60;88.50;;;;;;5053269;28;20454;-55
2023/02/08 00:11:50;;;;;;;13.70;11.63;;;2.60;88.60;;;;;;5053073;28;20452;-56
2023/02/08 00:14:17;;;;;;;16.40;12.27;;;2.50;88.50;;;;;;5053030;28;20839;-55
2023/02/08 00:16:43;;;;;;;15.10;10.73;;;2.50;88.40;;;;;;5053198;28;20441;-55
2023/02/08 00:19:10;;;;;;;15.90;12.07;;;2.50;88.90;;;;;;5053648;28;20449;-55
2023/02/08 00:21:37;;;;;;;15.60;11.93;;;2.50;88.70;;;;;;5053110;28;20445;-55
2023/02/08 00:24:05;;;;;;;15.60;10.50;;;2.50;88.80;;;;;;5052779;28;21004;-55
2023/02/08 00:26:32;;;;;;;15.33;11.10;;;2.50;88.80;;;;;;5053052;28;20480;-56
2023/02/08 00:28:59;;;;;;;16.50;10.40;;;2.40;88.90;;;;;;5053295;28;20445;-55
2023/02/08 00:31:25;;;;;;;14.67;11.07;;;2.40;89.00;;;;;;5053024;28;20461;-56
2023/02/08 00:33:52;;;;;;;16.07;11.87;;;2.40;89.00;;;;;;5052830;28;20481;-55
2023/02/08 00:36:19;;;;;;;16.80;13.10;;;2.40;89.10;;;;;;5052995;28;20480;-55
2023/02/08 00:38:46;;;;;;;14.57;11.13;;;2.40;89.20;;;;;;5052942;28;20458;-55
2023/02/08 00:41:14;;;;;;;14.70;11.20;;;2.40;89.40;;;;;;5052780;28;20457;-55
2023/02/08 00:43:42;;;;;;;15.20;11.40;;;2.40;89.50;;;;;;5052578;28;20477;-56
2023/02/08 00:46:09;;;;;;;13.30;10.33;;;2.40;89.60;;;;;;5052724;28;20481;-55
2023/02/08 00:48:35;;;;;;;17.87;12.83;;;2.40;89.40;;;;;;5053192;28;20556;-55
2023/02/08 00:51:04;;;;;;;14.93;11.60;;;2.40;89.30;;;;;;5052764;28;20453;-55
2023/02/08 00:53:34;;;;;;;17.33;11.30;;;2.40;89.40;;;;;;5052799;28;20477;-56
2023/02/08 00:56:01;;;;;;;17.50;11.17;;;2.40;89.60;;;;;;5052841;28;20444;-55
2023/02/08 00:58:31;;;;;;;16.50;11.90;;;2.40;89.80;;;;;;5052914;28;20445;-56
2023/02/08 01:00:57;;;;;;;17.37;11.50;;;2.30;90.00;;;;;;5052668;28;20453;-55
2023/02/08 01:03:24;;;;;;;14.20;10.70;;;2.30;90.00;;;;;;5052706;28;20445;-56
2023/02/08 01:05:51;;;;;;;18.23;11.70;;;2.30;90.20;;;;;;5052615;28;20454;-55
2023/02/08 01:08:19;;;;;;;19.33;11.67;;;2.30;90.30;;;;;;5052640;28;20448;-56
2023/02/08 01:10:46;;;;;;;16.90;11.37;;;2.30;90.60;;;;;;5052679;28;20438;-56
2023/02/08 01:13:13;;;;;;;15.33;11.20;;;2.30;90.50;;;;;;5055882;28;20445;-56
2023/02/08 01:15:41;;;;;;;17.93;12.10;;;2.30;90.50;;;;;;5055934;28;20980;-56
2023/02/08 01:18:08;;;;;;;17.17;11.77;;;2.30;90.70;;;;;;5056451;28;20453;-56
2023/02/08 01:20:35;;;;;;;17.77;10.90;;;2.30;90.60;;;;;;5056680;28;20450;-55
2023/02/08 01:23:02;;;;;;;16.70;12.30;;;2.30;90.50;;;;;;5056128;28;20461;-55
2023/02/08 01:25:29;;;;;;;15.63;11.30;;;2.30;90.40;;;;;;5055932;28;20481;-55
2023/02/08 01:27:56;;;;;;;17.37;10.90;;;2.30;90.30;;;;;;5055952;28;20507;-56
2023/02/08 01:30:23;;;;;;;16.57;10.83;;;2.30;90.30;;;;;;5056001;28;20438;-55
2023/02/08 01:32:51;;;;;;;19.10;12.30;;;2.30;90.20;;;;;;5055942;28;20446;-56
2023/02/08 01:35:17;;;;;;;17.17;10.73;;;2.30;90.20;;;;;;5055726;28;20469;-56
2023/02/08 01:37:44;;;;;;;11.97;9.20;;;2.30;90.10;;;;;;5055922;28;20442;-56
2023/02/08 01:40:12;;;;;;;13.93;10.00;;;2.40;90.20;;;;;;5055828;28;20460;-55
2023/02/08 01:42:38;;;;;;;12.30;10.00;;;2.30;90.10;;;;;;5055818;28;20449;-56
2023/02/08 01:45:28;;;;;;;13.20;9.60;;;2.40;90.00;;;;;;5055470;28;20481;-56
2023/02/08 01:48:00;;;;;;;14.10;9.50;;;2.40;89.80;;;;;;5055623;28;20493;-56
2023/02/08 01:50:34;;;;;;;15.27;10.80;;;2.30;89.80;;;;;;5055617;28;20434;-56
2023/02/08 01:53:01;;;;;;;12.93;9.80;;;2.40;90.00;;;;;;5055483;28;20437;-56
2023/02/08 01:55:32;;;;;;;12.00;10.10;;;2.40;89.80;;;;;;5055086;28;20839;-56
2023/02/08 01:58:03;;;;;;;12.60;9.63;;;2.30;89.60;;;;;;5055425;28;20430;-56
2023/02/08 02:00:31;;;;;;;13.47;10.43;;;2.30;89.70;;;;;;5055301;28;20555;-56
2023/02/08 02:03:02;;;;;;;14.07;9.30;;;2.40;89.90;;;;;;5055534;28;20445;-56
2023/02/08 02:05:34;;;;;;;13.80;9.70;;;2.40;89.80;;;;;;5055050;28;21096;-56
2023/02/08 02:08:01;;;;;;;13.20;9.37;;;2.40;89.40;;;;;;5054947;28;20844;-56
2023/02/08 02:10:31;;;;;;;15.00;10.50;;;2.40;89.00;;;;;;5055185;28;20453;-56
2023/02/08 02:13:03;;;;;;;12.40;9.93;;;2.40;89.10;;;;;;5055717;28;20450;-56
2023/02/08 02:15:30;;;;;;;18.27;10.60;;;2.40;88.90;;;;;;5054663;28;20838;-56
2023/02/08 02:17:57;;;;;;;12.73;9.90;;;2.30;88.60;;;;;;5055055;28;20456;-56
2023/02/08 02:20:37;;;;;;;11.80;9.23;;;2.30;88.80;;;;;;5055111;28;20426;-56
2023/02/08 02:23:40;;;;;;;11.53;9.70;;;2.40;89.30;;;;;;5053887;28;20491;-56
2023/02/08 02:26:40;;;;;;;12.73;9.77;;;2.40;89.20;;;;;;5054939;28;20433;-56
2023/02/08 02:29:33;;;;;;;13.67;9.90;;;2.40;88.60;;;;;;5054888;28;20440;-55
2023/02/08 02:32:10;;;;;;;14.20;10.70;;;2.30;88.50;;;;;;5044881;28;20462;-55
2023/02/08 02:34:42;;;;;;;12.27;10.30;;;2.40;88.60;;;;;;5054757;28;20471;-56
2023/02/08 02:37:16;;;;;;;12.53;9.53;;;2.30;87.90;;;;;;5054484;28;21009;-55
2023/02/08 02:39:52;;;;;;;14.10;10.33;;;2.40;87.00;;;;;;5054695;28;20422;-56
2023/02/08 02:45:22;;;;;;;15.00;9.83;;;2.30;86.20;;;;;;5054301;28;20440;-55
2023/02/08 02:47:58;;;;;;;12.47;9.40;;;2.30;86.50;;;;;;5054370;28;21010;-55
2023/02/08 02:50:32;;;;;;;12.77;8.70;;;2.30;85.70;;;;;;5054599;28;20441;-55
2023/02/08 02:53:03;;;;;;;13.00;9.50;;;2.20;86.00;;;;;;5054703;28;20434;-56
2023/02/08 02:55:34;;;;;;;13.53;9.70;;;2.20;86.50;;;;;;5054131;28;20965;-55
2023/02/08 02:58:02;;;;;;;12.07;9.17;;;2.30;86.80;;;;;;5054487;28;20433;-55
2023/02/08 03:00:32;;;;;;;12.47;8.87;;;2.30;87.20;;;;;;5054191;28;20937;-55
2023/02/08 03:03:00;;;;;;;15.83;11.00;;;2.30;87.40;;;;;;5054626;28;20442;-55
2023/02/08 03:05:28;;;;;;;13.23;10.10;;;2.30;87.10;;;;;;5054129;28;20470;-55
2023/02/08 03:08:18;;;;;;;12.80;9.77;;;2.30;86.90;;;;;;5054222;28;20930;-55
2023/02/08 03:11:00;;;;;;;13.90;9.80;;;2.30;87.30;;;;;;5054130;28;20441;-55
2023/02/08 03:13:35;;;;;;;13.23;9.73;;;2.30;87.30;;;;;;5054116;28;20512;-56
2023/02/08 03:16:15;;;;;;;15.93;9.70;;;2.30;87.10;;;;;;5054143;28;20429;-55
2023/02/08 03:18:55;;;;;;;12.40;9.67;;;2.30;86.90;;;;;;5054134;28;20429;-55
2023/02/08 03:21:33;;;;;;;11.07;9.43;;;2.30;87.30;;;;;;5054011;28;20441;-55
2023/02/08 03:24:06;;;;;;;12.90;9.80;;;2.20;87.60;;;;;;5054003;28;20478;-55
2023/02/08 03:26:40;;;;;;;15.50;10.60;;;2.30;88.00;;;;;;5053555;28;20445;-55
2023/02/08 03:29:15;;;;;;;14.17;9.50;;;2.20;87.80;;;;;;5053983;28;20800;-55
2023/02/08 03:31:45;;;;;;;14.40;9.10;;;2.20;87.60;;;;;;5053758;28;20441;-55
2023/02/08 03:34:20;;;;;;;13.20;9.67;;;2.30;87.70;;;;;;5053626;28;20516;-56
2023/02/08 03:36:53;;;;;;;12.37;9.17;;;2.20;88.40;;;;;;5053543;28;20438;-55
2023/02/08 03:39:25;;;;;;;14.20;10.67;;;2.20;87.30;;;;;;5053416;28;20466;-55
2023/02/08 03:41:56;;;;;;;13.17;9.77;;;2.20;87.00;;;;;;5053864;28;20433;-55
2023/02/08 03:44:31;;;;;;;15.87;10.33;;;2.20;86.90;;;;;;5053694;28;20484;-56
2023/02/08 03:47:02;;;;;;;16.13;9.43;;;2.20;86.90;;;;;;5053510;28;20488;-55
2023/02/08 03:49:35;;;;;;;13.90;11.00;;;2.20;86.60;;;;;;5053568;28;20468;-55
2023/02/08 03:52:06;;;;;;;11.80;9.10;;;2.20;87.40;;;;;;5053649;28;20445;-57
2023/02/08 03:54:36;;;;;;;11.73;9.10;;;2.20;86.40;;;;;;5053494;28;20461;-55
2023/02/08 03:57:10;;;;;;;14.63;10.13;;;2.20;86.30;;;;;;5053588;28;20441;-55
2023/02/08 03:59:40;;;;;;;14.70;9.70;;;2.20;86.80;;;;;;5053517;28;20429;-55
2023/02/08 04:02:10;;;;;;;12.40;9.70;;;2.10;86.80;;;;;;5053376;28;20455;-55
2023/02/08 04:04:42;;;;;;;12.70;9.20;;;2.10;87.80;;;;;;5053583;28;20509;-55
2023/02/08 04:07:09;;;;;;;13.63;10.20;;;2.10;87.20;;;;;;5053445;28;20472;-55
2023/02/08 04:09:36;;;;;;;14.37;10.27;;;2.00;87.10;;;;;;5053388;28;20449;-55
2023/02/08 04:12:03;;;;;;;15.53;10.67;;;2.00;87.10;;;;;;5053447;28;20441;-55
2023/02/08 04:14:30;;;;;;;14.57;10.93;;;2.00;87.20;;;;;;5053491;28;20477;-55
2023/02/08 04:16:57;;;;;;;15.20;10.43;;;2.00;87.10;;;;;;5053324;28;20968;-55
2023/02/08 04:19:23;;;;;;;15.23;9.47;;;1.90;87.00;;;;;;5053818;28;20438;-55
2023/02/08 04:21:51;;;;;;;13.70;10.40;;;1.90;87.50;;;;;;5053681;28;20464;-55
2023/02/08 04:24:19;;;;;;;14.07;9.70;;;1.90;87.60;;;;;;5053832;28;20476;-55
2023/02/08 04:26:45;;;;;;;14.77;11.27;;;1.90;87.80;;;;;;5053982;28;20453;-55
2023/02/08 04:29:12;;;;;;;13.40;10.00;;;1.90;87.90;;;;;;5054935;28;20449;-55
2023/02/08 04:31:39;;;;;;;12.10;9.00;;;1.90;88.00;;;;;;5054528;28;20450;-55
2023/02/08 04:34:05;;;;;;;13.93;10.40;;;1.90;88.10;;;;;;5054204;28;20473;-55
2023/02/08 04:36:32;;;;;;;13.40;9.70;;;1.90;88.80;;;;;;5053258;28;20820;-55
2023/02/08 04:39:00;;;;;;;14.53;10.40;;;1.90;88.00;;;;;;5053262;28;20473;-55
2023/02/08 04:41:27;;;;;;;15.53;11.40;;;1.80;87.90;;;;;;5053299;28;20913;-55
2023/02/08 04:43:54;;;;;;;13.50;10.67;;;1.80;87.40;;;;;;5055124;28;20480;-55
2023/02/08 04:46:20;;;;;;;15.10;11.03;;;1.80;87.40;;;;;;5054844;28;20461;-55
2023/02/08 04:48:47;;;;;;;13.27;10.13;;;1.80;87.60;;;;;;5056624;28;20481;-56
2023/02/08 04:51:14;;;;;;;13.33;10.33;;;1.70;87.90;;;;;;5057101;28;20802;-55
2023/02/08 04:53:40;;;;;;;13.30;9.63;;;1.70;88.00;;;;;;5056371;28;20460;-55
2023/02/08 04:56:09;;;;;;;16.23;11.50;;;1.70;88.10;;;;;;5056393;28;20972;-55
2023/02/08 04:58:36;;;;;;;12.50;10.30;;;1.80;88.10;;;;;;5056293;28;20797;-55
2023/02/08 05:01:06;;;;;;;12.83;10.30;;;1.80;87.90;;;;;;5056640;28;20449;-55
2023/02/08 05:03:33;;;;;;;14.37;9.83;;;1.80;88.00;;;;;;5056441;28;20449;-55
2023/02/08 05:06:00;;;;;;;15.80;11.07;;;1.70;87.90;;;;;;5056731;28;20450;-55
2023/02/08 05:08:27;;;;;;;16.47;11.63;;;1.70;87.60;;;;;;5056380;28;20476;-55
2023/02/08 05:10:54;;;;;;;16.10;11.33;;;1.70;87.80;;;;;;5056449;28;20449;-54
2023/02/08 05:13:22;;;;;;;15.73;11.53;;;1.60;88.10;;;;;;5056144;28;20544;-55
2023/02/08 05:15:49;;;;;;;18.23;11.43;;;1.60;88.00;;;;;;5057202;28;20446;-55
2023/02/08 05:18:16;;;;;;;15.80;11.53;;;1.60;88.90;;;;;;5056269;28;20425;-55
2023/02/08 05:20:43;;;;;;;12.97;11.00;;;1.60;89.50;;;;;;5057085;28;20449;-55
2023/02/08 05:23:10;;;;;;;18.00;11.00;;;1.60;89.90;;;;;;5056106;28;20450;-55
2023/02/08 05:25:38;;;;;;;16.67;11.47;;;1.60;90.00;;;;;;5056054;28;20457;-55
2023/02/08 05:28:05;;;;;;;15.97;11.57;;;1.70;90.10;;;;;;5056035;28;20489;-55
2023/02/08 05:30:33;;;;;;;16.37;12.40;;;1.70;90.10;;;;;;5056078;28;20460;-55
2023/02/08 05:33:00;;;;;;;17.37;12.47;;;1.70;90.00;;;;;;5056646;28;20437;-55
2023/02/08 05:35:27;;;;;;;19.37;14.13;;;1.70;90.00;;;;;;5056099;28;20476;-55
2023/02/08 05:37:53;;;;;;;15.30;11.77;;;1.70;90.00;;;;;;5055709;28;20941;-55
2023/02/08 05:40:20;;;;;;;12.83;11.33;;;1.70;90.00;;;;;;5055583;28;20949;-55
2023/02/08 05:42:47;;;;;;;15.77;12.20;;;1.70;90.00;;;;;;5055813;28;20453;-57
2023/02/08 05:45:14;;;;;;;18.47;12.70;;;1.70;90.00;;;;;;5055819;28;20932;-56
2023/02/08 05:47:46;;;;;;;17.43;11.43;;;1.70;90.00;;;;;;5057678;28;21091;-55
2023/02/08 05:50:14;;;;;;;18.90;11.57;;;1.70;90.00;;;;;;5058948;28;20476;-56
2023/02/08 05:52:41;;;;;;;15.80;12.40;;;1.70;90.00;;;;;;5056812;28;20434;-56
2023/02/08 05:55:08;;;;;;;19.20;11.87;;;1.70;90.00;;;;;;5055461;28;20469;-56
2023/02/08 05:57:35;;;;;;;22.53;13.97;;;1.70;90.00;;;;;;5055433;28;20452;-56
2023/02/08 06:00:03;;;;;;;17.53;13.10;;;1.70;90.00;;;;;;5056278;28;20479;-56
2023/02/08 06:02:29;;;;;;;17.10;12.73;;;1.60;89.90;;;;;;5055411;28;20460;-56
2023/02/08 06:04:58;;;;;;;18.97;12.80;;;1.60;89.90;;;;;;5055499;28;20812;-56
2023/02/08 06:07:25;;;;;;;20.93;13.80;;;1.60;90.00;;;;;;5054984;28;21016;-56
2023/02/08 06:09:51;;;;;;;17.50;12.67;;;1.60;90.30;;;;;;5055499;28;20434;-55
2023/02/08 06:12:18;;;;;;;19.97;12.83;;;1.60;90.40;;;;;;5055604;28;20433;-56
2023/02/08 06:14:45;;;;;;;15.60;11.70;;;1.60;90.50;;;;;;5055295;28;20480;-56
2023/02/08 06:17:11;;;;;;;18.03;12.60;;;1.60;90.50;;;;;;5055488;28;20449;-56
2023/02/08 06:19:38;;;;;;;21.20;14.10;;;1.60;90.50;;;;;;5055620;28;20418;-56
2023/02/08 06:22:06;;;;;;;15.97;12.07;;;1.60;90.50;;;;;;5055318;28;20449;-57
2023/02/08 06:24:33;;;;;;;20.03;13.13;;;1.60;90.40;;;;;;5055251;28;20470;-56
2023/02/08 06:26:59;;;;;;;19.03;12.10;;;1.50;90.30;;;;;;5055140;28;20442;-56
2023/02/08 06:29:26;;;;;;;15.10;11.90;;;1.60;90.20;;;;;;5054800;28;20984;-56
2023/02/08 06:31:53;;;;;;;18.00;12.27;;;1.50;90.00;;;;;;5055162;28;20472;-56
2023/02/08 06:34:20;;;;;;;17.87;12.83;;;1.50;89.90;;;;;;5055032;28;20466;-56
2023/02/08 06:36:46;;;;;;;19.77;12.50;;;1.50;89.70;;;;;;5054756;28;20957;-56
2023/02/08 06:39:14;;;;;;;17.50;13.37;;;1.50;89.80;;;;;;5054874;28;20449;-56
2023/02/08 06:41:41;;;;;;;21.70;13.43;;;1.50;89.90;;;;;;5055091;28;20453;-56
2023/02/08 06:44:08;;;;;;;18.50;12.07;;;1.50;90.10;;;;;;5054298;28;20981;-56
2023/02/08 06:46:34;;;;;;;21.10;11.40;;;1.50;90.20;;;;;;5054697;28;20445;-56
2023/02/08 06:49:01;;;;;;;16.10;12.60;;;1.50;90.20;;;;;;5054538;28;20489;-56
2023/02/08 06:51:28;;;;;;;17.43;11.20;;;1.40;90.20;;;;;;5054392;28;20783;-57
2023/02/08 06:53:55;;;;;;;20.13;11.47;;;1.40;90.20;;;;;;5054431;28;20473;-56
2023/02/08 06:56:23;;;;;;;18.13;12.03;;;1.40;90.20;;;;;;5054589;28;20438;-56
2023/02/08 06:58:49;;;;;;;15.03;12.03;;;1.30;89.90;;;;;;5054193;28;20946;-56
2023/02/08 07:01:16;;;;;;;15.50;11.07;;;1.40;90.00;;;;;;5054403;28;20796;-56
2023/02/08 07:03:43;;;;;;;17.40;11.50;;;1.40;90.10;;;;;;5054199;28;20473;-56
2023/02/08 07:06:12;;;;;;;14.80;10.87;;;1.40;90.20;;;;;;5054385;28;20473;-56
2023/02/08 07:08:39;;;;;;;15.00;11.67;;;1.30;90.00;;;;;;5054390;28;20489;-56
2023/02/08 07:11:08;;;;;;;17.40;11.83;;;1.30;90.00;;;;;;5053994;28;20870;-56
2023/02/08 07:13:36;;;;;;;18.37;12.33;;;1.30;90.00;;;;;;5053052;28;20437;-56
2023/02/08 07:16:03;;;;;;;16.07;10.23;;;1.30;89.90;;;;;;5054142;28;20438;-56
2023/02/08 07:18:30;;;;;;;16.23;11.97;;;1.30;90.00;;;;;;5054265;28;20453;-56
2023/02/08 07:20:57;;;;;;;15.00;11.40;;;1.30;89.80;;;;;;5054244;28;20436;-56
2023/02/08 07:23:23;;;;;;;22.00;11.80;;;1.30;89.80;;;;;;5054029;28;20453;-57
2023/02/08 07:25:57;;;;;;;15.43;11.70;;;1.30;90.00;;;;;;5054882;28;20873;-56
2023/02/08 07:28:24;;;;;;;15.77;11.70;;;1.30;90.00;;;;;;5053967;28;20540;-56
2023/02/08 07:30:52;;;;;;;14.10;11.03;;;1.30;90.20;;;;;;5054517;28;20450;-56
2023/02/08 07:33:19;;;;;;;21.93;11.20;;;1.40;90.30;;;;;;5053970;28;20437;-57
2023/02/08 07:35:46;;;;;;;15.00;11.10;;;1.40;90.30;;;;;;5053650;28;20473;-56
2023/02/08 07:38:13;;;;;;;17.07;10.73;;;1.40;90.30;;;;;;5053711;28;20442;-56
2023/02/08 07:40:40;;;;;;;14.13;9.93;;;1.40;90.30;;;;;;5053608;28;20453;-57
2023/02/08 07:43:06;;;;;;;25.10;10.80;;;1.40;90.40;;;;;;5053650;28;20430;-56
2023/02/08 07:45:33;;;;;;;16.63;10.53;;;1.40;90.40;;;;;;5053743;28;20473;-56
2023/02/08 07:48:01;;;;;;;15.70;11.67;;;1.30;90.20;;;;;;5052936;28;20560;-56
2023/02/08 07:50:28;;;;;;;13.27;10.13;;;1.30;89.80;;;;;;5052295;28;20544;-56
2023/02/08 07:52:55;;;;;;;16.23;10.23;;;1.30;90.10;;;;;;5053229;28;20925;-57
2023/02/08 07:55:22;;;;;;;12.90;9.63;;;1.40;90.00;;;;;;5053303;28;20480;-57
2023/02/08 07:57:49;;;;;;;17.50;10.33;;;1.40;90.10;;;;;;5053437;28;20445;-56
2023/02/08 08:00:18;;;;;;;13.70;9.60;;;1.40;90.10;;;;;;5053613;28;20856;-56
2023/02/08 08:02:45;;;;;;;14.70;10.60;;;1.40;89.50;;;;;;5053380;28;20826;-57
2023/02/08 08:05:13;;;;;;;16.67;10.70;;;1.50;89.30;;;;;;5052936;28;20823;-56
2023/02/08 08:07:39;;;;;;;14.83;9.80;;;1.50;89.20;;;;;;5053253;28;20441;-56
2023/02/08 08:10:07;;;;;;;13.17;10.50;;;1.60;89.30;;;;;;5052951;28;20465;-57
2023/02/08 08:12:33;;;;;;;15.87;10.83;;;1.60;89.00;;;;;;5053183;28;20449;-56
2023/02/08 08:15:00;;;;;;;13.73;10.87;;;1.70;88.90;;;;;;5052825;28;20568;-56
2023/02/08 08:17:27;;;;;;;16.47;11.00;;;1.70;88.40;;;;;;5053273;28;20851;-56
2023/02/08 08:19:54;;;;;;;15.03;10.60;;;1.70;87.70;;;;;;5053177;28;20445;-56
2023/02/08 08:22:22;;;;;;;14.97;11.03;;;1.70;87.60;;;;;;5055191;28;20917;-56
2023/02/08 08:24:49;;;;;;;13.07;9.80;;;1.80;87.70;;;;;;5057244;28;20477;-56
2023/02/08 08:27:16;;;;;;;14.43;10.90;;;1.80;87.60;;;;;;5057236;28;20814;-56
2023/02/08 08:29:43;;;;;;;17.03;11.53;;;1.90;87.50;;;;;;5056966;28;20481;-56
2023/02/08 08:32:09;;;;;;;11.47;9.37;;;1.90;87.70;;;;;;5055876;28;20450;-56
2023/02/08 08:34:36;;;;;;;11.97;8.97;;;1.90;87.30;;;;;;5057029;28;20470;-56
2023/02/08 08:37:03;;;;;;;18.80;10.30;;;2.00;86.10;;;;;;5057197;28;20460;-56
2023/02/08 08:39:31;;;;;;;25.43;9.87;;;2.00;85.60;;;;;;5056944;28;20499;-56
2023/02/08 08:41:58;;;;;;;12.30;9.30;;;2.10;85.50;;;;;;5056516;28;20829;-56
2023/02/08 08:44:26;;;;;;;11.47;8.63;;;2.10;85.70;;;;;;5056757;28;20492;-55
2023/02/08 08:46:55;;;;;;;14.43;10.20;;;2.10;85.80;;;;;;5056769;28;20457;-55
2023/02/08 08:49:22;;;;;;;14.07;9.60;;;2.20;85.60;;;;;;5056721;28;20883;-56
2023/02/08 08:51:49;;;;;;;13.03;9.43;;;2.20;85.70;;;;;;5056718;28;20445;-56
2023/02/08 08:54:17;;;;;;;13.97;9.77;;;2.30;85.40;;;;;;5056597;28;20552;-56
2023/02/08 08:56:45;;;;;;;14.63;10.20;;;2.30;85.10;;;;;;5056692;28;20461;-58
2023/02/08 08:59:11;;;;;;;13.30;9.40;;;2.40;85.60;;;;;;5056485;28;20445;-57
2023/02/08 09:01:40;;;;;;;16.30;9.63;;;2.40;85.90;;;;;;5056404;28;20453;-56
2023/02/08 09:04:06;;;;;;;12.63;8.83;;;2.50;86.00;;;;;;5056405;28;20480;-57
2023/02/08 09:06:33;;;;;;;12.47;8.93;;;2.50;85.90;;;;;;5056726;28;20442;-56
2023/02/08 09:09:00;;;;;;;23.97;9.63;;;2.60;85.80;;;;;;5056395;28;20558;-56
2023/02/08 09:11:27;;;;;;;13.07;8.10;;;2.60;85.80;;;;;;5056293;28;20453;-56
2023/02/08 09:13:55;;;;;;;14.07;9.70;;;2.70;85.60;;;;;;5056080;28;20472;-56
2023/02/08 09:16:24;;;;;;;13.20;8.23;;;2.70;85.10;;;;;;5056377;28;20812;-56
2023/02/08 09:18:51;;;;;;;14.53;8.80;;;2.80;84.50;;;;;;5055951;28;20507;-56
2023/02/08 09:21:19;;;;;;;15.00;8.90;;;2.80;84.50;;;;;;5056033;28;20954;-56
2023/02/08 09:23:47;;;;;;;14.10;8.93;;;2.90;84.50;;;;;;5056177;28;20564;-56
2023/02/08 09:26:15;;;;;;;18.17;9.80;;;2.90;84.40;;;;;;5056506;28;20473;-56
2023/02/08 09:28:42;;;;;;;12.73;9.57;;;3.00;84.30;;;;;;5056197;28;20481;-56
2023/02/08 09:31:13;;;;;;;10.40;8.93;;;3.00;83.90;;;;;;5055820;28;20942;-57
2023/02/08 09:33:39;;;;;;;13.47;8.37;;;3.10;83.90;;;;;;5055390;28;20418;-57
2023/02/08 09:36:07;;;;;;;10.10;8.47;;;3.10;83.90;;;;;;5056044;28;20438;-56
2023/02/08 09:38:34;;;;;;;13.50;9.53;;;3.20;83.80;;;;;;5055695;28;20992;-56
2023/02/08 09:41:12;;;;;;;14.63;8.30;;;3.30;83.60;;;;;;5056012;28;20450;-56
2023/02/08 09:43:50;;;;;;;10.80;8.70;;;3.30;83.10;;;;;;5055810;28;20441;-56
2023/02/08 09:46:21;;;;;;;11.30;9.57;;;3.40;82.50;;;;;;5055830;28;20445;-56
2023/02/08 09:48:50;;;;;;;13.10;8.53;;;3.40;82.10;;;;;;5055323;28;20496;-56
2023/02/08 09:51:26;;;;;;;12.93;8.67;;;3.50;81.40;;;;;;5055842;28;20447;-56
2023/02/08 09:53:56;;;;;;;13.27;8.70;;;3.60;81.10;;;;;;5056106;28;20477;-56
2023/02/08 09:56:29;;;;;;;11.70;7.90;;;3.60;80.40;;;;;;5055640;28;20487;-56
2023/02/08 09:58:57;;;;;;;11.60;8.90;;;3.70;79.50;;;;;;5055722;28;20520;-56
2023/02/08 10:01:28;;;;;;;14.37;9.77;;;3.80;78.70;;;;;;5055673;28;20441;-56
2023/02/08 10:03:59;;;;;;;9.73;8.73;;;3.90;78.50;;;;;;5055582;28;20473;-56
2023/02/08 10:06:26;;;;;;;9.50;8.20;;;4.00;77.90;;;;;;5055739;28;20838;-56
2023/02/08 10:08:54;;;;;;;14.63;8.67;;;4.00;76.90;;;;;;5055625;28;20484;-56
2023/02/08 10:11:39;;;;;;;10.83;8.63;;;4.00;74.80;;;;;;5055472;28;20457;-56
2023/02/08 10:14:17;;;;;;;14.20;8.07;;;4.10;74.80;;;;;;5055200;28;20842;-57
2023/02/08 10:16:56;;;;;;;13.23;8.57;;;4.30;73.50;;;;;;5055305;28;20445;-57
2023/02/08 10:19:34;;;;;;;11.40;6.73;;;4.30;73.00;;;;;;5055254;28;20426;-57
2023/02/08 10:22:16;;;;;;;10.43;7.77;;;4.40;71.80;;;;;;5055258;28;20434;-59
2023/02/08 10:25:11;;;;;;;12.13;8.90;;;4.60;71.20;;;;;;5055262;28;20594;-57
2023/02/08 10:27:48;;;;;;;14.30;7.60;;;4.70;70.40;;;;;;5055168;28;20461;-56
2023/02/08 10:30:28;;;;;;;9.77;7.30;;;4.80;69.60;;;;;;5055046;28;20478;-57
2023/02/08 10:33:00;;;;;;;9.13;6.20;;;5.00;68.60;;;;;;5055007;28;20438;-57
2023/02/08 10:35:35;;;;;;;9.37;7.57;;;5.10;67.60;;;;;;5055215;28;20476;-56
2023/02/08 10:38:11;;;;;;;11.03;6.90;;;5.20;66.10;;;;;;5055290;28;20446;-57
2023/02/08 10:40:40;;;;;;;9.97;6.90;;;5.30;64.80;;;;;;5055142;28;20437;-57
2023/02/08 10:43:19;;;;;;;12.03;7.47;;;5.50;64.70;;;;;;5055232;28;20461;-57
2023/02/08 10:45:52;;;;;;;12.20;6.57;;;5.60;63.50;;;;;;5055716;28;20473;-57
2023/02/08 10:48:31;;;;;;;10.80;7.90;;;5.90;63.10;;;;;;5055406;28;20533;-57
2023/02/08 10:50:58;;;;;;;10.23;7.63;;;6.10;62.20;;;;;;5055899;28;20477;-57
2023/02/08 10:53:25;;;;;;;11.33;7.87;;;6.30;61.30;;;;;;5055793;28;20434;-58
2023/02/08 10:55:52;;;;;;;10.80;7.97;;;6.50;60.00;;;;;;5055474;28;20813;-57
2023/02/08 10:58:21;;;;;;;9.37;7.10;;;6.80;59.80;;;;;;5055375;28;20458;-57
2023/02/08 11:00:50;;;;;;;11.40;7.87;;;7.20;59.60;;;;;;5054663;28;20450;-57
2023/02/08 11:03:21;;;;;;;9.67;7.17;;;7.50;57.80;;;;;;5054884;28;20438;-57
2023/02/08 11:05:50;;;;;;;8.97;7.23;;;7.70;56.50;;;;;;5054741;28;20477;-57
2023/02/08 11:08:19;;;;;;;9.97;7.30;;;7.90;55.70;;;;;;5054542;28;20966;-57
2023/02/08 11:10:55;;;;;;;9.73;7.17;;;8.00;55.10;;;;;;5054242;28;20988;-57
2023/02/08 11:13:24;;;;;;;8.87;7.00;;;8.10;54.70;;;;;;5054331;28;20449;-57
2023/02/08 11:15:53;;;;;;;9.43;7.83;;;8.20;53.40;;;;;;5054147;28;20454;-57
2023/02/08 11:18:23;;;;;;;8.40;6.83;;;8.40;52.30;;;;;;5054140;28;20434;-57
2023/02/08 11:20:53;;;;;;;8.23;6.90;;;8.50;51.40;;;;;;5055022;28;20455;-57
2023/02/08 11:23:24;;;;;;;7.47;5.50;;;8.70;50.00;;;;;;5053846;28;20809;-57
2023/02/08 11:25:52;;;;;;;11.80;6.57;;;8.90;48.80;;;;;;5053918;28;20437;-57
2023/02/08 11:28:27;;;;;;;9.60;6.90;;;9.40;47.20;;;;;;5053872;28;20458;-57
2023/02/08 11:31:00;;;;;;;6.40;5.77;;;10.00;45.30;;;;;;5053908;28;20514;-57
2023/02/08 11:33:28;;;;;;;10.53;6.80;;;10.70;43.20;;;;;;5053654;28;20446;-58
2023/02/08 11:36:00;;;;;;;13.23;6.10;;;11.40;41.30;;;;;;5053711;28;20449;-57
2023/02/08 11:38:28;;;;;;;7.77;5.40;;;12.00;40.60;;;;;;5053578;28;20449;-57
2023/02/08 11:40:56;;;;;;;8.00;6.80;;;12.60;38.90;;;;;;5053587;28;20446;-57
2023/02/08 11:43:26;;;;;;;8.27;7.00;;;13.00;36.60;;;;;;5054172;28;20540;-58
2023/02/08 11:45:55;;;;;;;11.90;6.13;;;13.50;35.80;;;;;;5053273;28;20933;-57
2023/02/08 11:48:25;;;;;;;7.80;6.80;;;13.90;35.10;;;;;;5053171;28;21019;-58
2023/02/08 11:51:00;;;;;;;8.70;6.53;;;14.30;32.80;;;;;;5054266;28;20477;-57
2023/02/08 11:53:31;;;;;;;6.97;6.27;;;14.40;31.40;;;;;;5053330;28;20437;-58
2023/02/08 11:56:16;;;;;;;8.30;5.80;;;14.70;32.90;;;;;;5052964;28;20441;-58
2023/02/08 11:58:54;;;;;;;7.07;6.03;;;15.10;31.90;;;;;;5053144;28;20894;-58
2023/02/08 12:01:25;;;;;;;8.70;6.60;;;15.50;31.20;;;;;;5053351;28;20438;-58
2023/02/08 12:03:52;;;;;;;6.20;5.60;;;15.90;31.60;;;;;;5053391;28;20805;-58
2023/02/08 12:06:39;;;;;;;8.03;6.23;;;16.30;30.10;;;;;;5053277;28;20906;-58
2023/02/08 12:09:12;;;;;;;7.83;6.07;;;16.60;28.10;;;;;;5053086;28;20532;-58
2023/02/08 12:11:42;;;;;;;6.57;5.87;;;17.00;28.60;;;;;;5053272;28;20445;-58
2023/02/08 12:14:24;;;;;;;6.50;5.87;;;17.30;28.20;;;;;;5052939;28;20846;-58
2023/02/08 12:17:03;;;;;;;7.63;5.90;;;17.60;26.80;;;;;;5053169;28;20453;-58
2023/02/08 12:20:05;;;;;;;6.43;5.70;;;17.80;27.40;;;;;;5053206;28;20426;-58
2023/02/08 12:22:39;;;;;;;6.00;5.40;;;18.00;26.20;;;;;;5039960;28;20518;-58
2023/02/08 12:25:21;;;;;;;6.73;6.13;;;17.90;24.90;;;;;;5053168;28;20863;-58
2023/02/08 12:27:54;;;;;;;6.63;6.03;;;17.90;25.50;;;;;;5052866;28;20441;-58
2023/02/08 12:30:29;;;;;;;9.10;6.47;;;18.00;26.00;;;;;;5053090;28;20570;-58
2023/02/08 12:33:17;;;;;;;6.70;5.30;;;18.00;25.10;;;;;;5052906;28;20805;-58
2023/02/08 12:36:05;;;;;;;6.13;5.40;;;18.30;25.80;;;;;;5053013;28;20469;-58
2023/02/08 12:41:43;;;;;;;11.73;6.07;;;19.00;25.40;;;;;;5053152;28;20901;-58
2023/02/08 12:44:19;;;;;;;6.30;5.70;;;19.20;24.90;;;;;;5053109;28;20464;-58
2023/02/08 12:47:03;;;;;;;9.70;6.50;;;19.50;24.90;;;;;;5053107;28;20442;-58
2023/02/08 12:49:47;;;;;;;6.53;5.80;;;19.80;24.90;;;;;;5052875;28;20473;-58
2023/02/08 12:52:25;;;;;;;8.27;6.27;;;20.10;24.20;;;;;;5053212;28;20534;-58
2023/02/08 12:55:00;;;;;;;6.20;5.60;;;20.40;23.50;;;;;;5052836;28;20473;-58
2023/02/08 12:57:29;;;;;;;8.00;5.63;;;20.50;23.30;;;;;;5052906;28;20437;-58
2023/02/08 13:00:00;;;;;;;7.60;5.83;;;20.60;23.30;;;;;;5052893;28;20421;-58
2023/02/08 13:02:32;;;;;;;6.43;5.83;;;20.80;23.00;;;;;;5052861;28;20790;-57
2023/02/08 13:05:03;;;;;;;8.03;6.27;;;21.10;23.70;;;;;;5052951;28;20465;-58